sensor_id;sensor_type;location;lat;lon;timestamp;P1;durP1;ratioP1;P2;durP2;ratioP2
18320;SDS011;54904;54.350;18.664;2023-04-03T00:01:52;1.67;;;0.90;;
18320;SDS011;54904;54.350;18.664;2023-04-03T00:04:19;5.03;;;1.10;;
18320;SDS011;54904;54.350;18.664;2023-04-03T00:06:46;1.53;;;0.80;;
18320;SDS011;54904;54.350;18.664;2023-04-03T00:09:13;1.63;;;0.73;;
18320;SDS011;54904;54.350;18.664;2023-04-03T00:11:40;2.60;;;0.90;;
18320;SDS011;54904;54.350;18.664;2023-04-03T00:14:09;2.20;;;0.60;;
18320;SDS011;54904;54.350;18.664;2023-04-03T00:16:36;3.37;;;0.77;;
18320;SDS011;54904;54.350;18.664;2023-04-03T00:19:03;1.00;;;0.70;;
18320;SDS011;54904;54.350;18.664;2023-04-03T00:21:30;4.60;;;0.90;;
18320;SDS011;54904;54.350;18.664;2023-04-03T00:23:58;1.80;;;0.70;;
18320;SDS011;54904;54.350;18.664;2023-04-03T00:26:25;1.60;;;0.60;;
18320;SDS011;54904;54.350;18.664;2023-04-03T00:28:52;1.63;;;0.60;;
18320;SDS011;54904;54.350;18.664;2023-04-03T00:31:20;1.63;;;0.67;;
18320;SDS011;54904;54.350;18.664;2023-04-03T00:33:48;3.47;;;0.90;;
18320;SDS011;54904;54.350;18.664;2023-04-03T00:36:15;1.80;;;1.00;;
18320;SDS011;54904;54.350;18.664;2023-04-03T00:38:42;1.83;;;0.77;;
18320;SDS011;54904;54.350;18.664;2023-04-03T00:41:09;3.40;;;0.70;;
18320;SDS011;54904;54.350;18.664;2023-04-03T00:43:36;1.43;;;0.90;;
18320;SDS011;54904;54.350;18.664;2023-04-03T00:46:04;1.17;;;0.80;;
18320;SDS011;54904;54.350;18.664;2023-04-03T00:48:33;1.67;;;0.50;;
18320;SDS011;54904;54.350;18.664;2023-04-03T00:51:04;4.57;;;0.70;;
18320;SDS011;54904;54.350;18.664;2023-04-03T00:53:33;1.47;;;0.80;;
18320;SDS011;54904;54.350;18.664;2023-04-03T00:56:06;2.43;;;1.00;;
18320;SDS011;54904;54.350;18.664;2023-04-03T00:58:37;1.97;;;0.80;;
18320;SDS011;54904;54.350;18.664;2023-04-03T01:03:44;1.23;;;0.70;;
18320;SDS011;54904;54.350;18.664;2023-04-03T01:06:12;1.57;;;0.73;;
18320;SDS011;54904;54.350;18.664;2023-04-03T01:08:43;0.93;;;0.60;;
18320;SDS011;54904;54.350;18.664;2023-04-03T01:11:12;0.43;;;0.43;;
18320;SDS011;54904;54.350;18.664;2023-04-03T01:13:39;2.13;;;0.80;;
18320;SDS011;54904;54.350;18.664;2023-04-03T01:16:07;0.60;;;0.60;;
18320;SDS011;54904;54.350;18.664;2023-04-03T01:18:34;0.50;;;0.50;;
18320;SDS011;54904;54.350;18.664;2023-04-03T01:24:19;4.00;;;0.93;;
18320;SDS011;54904;54.350;18.664;2023-04-03T01:26:54;2.70;;;0.73;;
18320;SDS011;54904;54.350;18.664;2023-04-03T01:29:21;3.60;;;0.97;;
18320;SDS011;54904;54.350;18.664;2023-04-03T01:31:51;1.83;;;0.73;;
18320;SDS011;54904;54.350;18.664;2023-04-03T01:34:20;0.83;;;0.67;;
18320;SDS011;54904;54.350;18.664;2023-04-03T01:36:48;2.47;;;0.90;;
18320;SDS011;54904;54.350;18.664;2023-04-03T01:39:17;2.43;;;0.60;;
18320;SDS011;54904;54.350;18.664;2023-04-03T01:41:44;1.93;;;0.70;;
18320;SDS011;54904;54.350;18.664;2023-04-03T01:44:19;5.13;;;1.00;;
18320;SDS011;54904;54.350;18.664;2023-04-03T01:46:47;2.17;;;0.90;;
18320;SDS011;54904;54.350;18.664;2023-04-03T01:49:15;3.80;;;0.90;;
18320;SDS011;54904;54.350;18.664;2023-04-03T01:51:43;1.10;;;0.57;;
18320;SDS011;54904;54.350;18.664;2023-04-03T01:54:10;2.80;;;0.63;;
18320;SDS011;54904;54.350;18.664;2023-04-03T01:56:37;3.47;;;1.00;;
18320;SDS011;54904;54.350;18.664;2023-04-03T01:59:04;2.57;;;1.00;;
18320;SDS011;54904;54.350;18.664;2023-04-03T02:01:31;3.03;;;0.90;;
18320;SDS011;54904;54.350;18.664;2023-04-03T02:03:59;0.97;;;0.93;;
18320;SDS011;54904;54.350;18.664;2023-04-03T02:06:28;1.33;;;0.70;;
18320;SDS011;54904;54.350;18.664;2023-04-03T02:08:55;3.37;;;0.70;;
18320;SDS011;54904;54.350;18.664;2023-04-03T02:11:22;1.03;;;0.70;;
18320;SDS011;54904;54.350;18.664;2023-04-03T02:13:49;1.20;;;0.73;;
18320;SDS011;54904;54.350;18.664;2023-04-03T02:16:16;1.10;;;0.70;;
18320;SDS011;54904;54.350;18.664;2023-04-03T02:18:43;3.60;;;0.80;;
18320;SDS011;54904;54.350;18.664;2023-04-03T02:21:10;1.57;;;0.80;;
18320;SDS011;54904;54.350;18.664;2023-04-03T02:23:39;2.70;;;0.50;;
18320;SDS011;54904;54.350;18.664;2023-04-03T02:26:06;2.30;;;1.00;;
18320;SDS011;54904;54.350;18.664;2023-04-03T02:28:35;1.80;;;0.67;;
18320;SDS011;54904;54.350;18.664;2023-04-03T02:31:03;1.70;;;0.63;;
18320;SDS011;54904;54.350;18.664;2023-04-03T02:33:31;1.10;;;0.60;;
18320;SDS011;54904;54.350;18.664;2023-04-03T02:35:59;2.77;;;0.97;;
18320;SDS011;54904;54.350;18.664;2023-04-03T02:38:26;1.27;;;0.80;;
18320;SDS011;54904;54.350;18.664;2023-04-03T02:40:55;0.67;;;0.67;;
18320;SDS011;54904;54.350;18.664;2023-04-03T02:43:26;1.47;;;0.90;;
18320;SDS011;54904;54.350;18.664;2023-04-03T02:45:53;1.90;;;0.70;;
18320;SDS011;54904;54.350;18.664;2023-04-03T02:48:20;3.37;;;0.90;;
18320;SDS011;54904;54.350;18.664;2023-04-03T02:50:48;3.20;;;0.77;;
18320;SDS011;54904;54.350;18.664;2023-04-03T02:53:15;1.43;;;0.83;;
18320;SDS011;54904;54.350;18.664;2023-04-03T02:55:42;2.03;;;0.73;;
18320;SDS011;54904;54.350;18.664;2023-04-03T02:58:11;1.73;;;0.90;;
18320;SDS011;54904;54.350;18.664;2023-04-03T03:00:39;3.13;;;0.70;;
18320;SDS011;54904;54.350;18.664;2023-04-03T03:03:06;0.97;;;0.57;;
18320;SDS011;54904;54.350;18.664;2023-04-03T03:05:33;2.17;;;0.83;;
18320;SDS011;54904;54.350;18.664;2023-04-03T03:08:01;1.00;;;0.80;;
18320;SDS011;54904;54.350;18.664;2023-04-03T03:10:28;1.53;;;0.80;;
18320;SDS011;54904;54.350;18.664;2023-04-03T03:12:55;0.67;;;0.50;;
18320;SDS011;54904;54.350;18.664;2023-04-03T03:15:24;2.93;;;0.90;;
18320;SDS011;54904;54.350;18.664;2023-04-03T03:17:51;1.47;;;0.70;;
18320;SDS011;54904;54.350;18.664;2023-04-03T03:20:19;2.50;;;0.70;;
18320;SDS011;54904;54.350;18.664;2023-04-03T03:22:46;1.37;;;0.90;;
18320;SDS011;54904;54.350;18.664;2023-04-03T03:25:13;2.40;;;1.10;;
18320;SDS011;54904;54.350;18.664;2023-04-03T03:27:41;0.77;;;0.70;;
18320;SDS011;54904;54.350;18.664;2023-04-03T03:30:08;1.03;;;0.67;;
18320;SDS011;54904;54.350;18.664;2023-04-03T03:32:37;2.03;;;0.80;;
18320;SDS011;54904;54.350;18.664;2023-04-03T03:35:04;0.83;;;0.53;;
18320;SDS011;54904;54.350;18.664;2023-04-03T03:37:31;1.10;;;0.70;;
18320;SDS011;54904;54.350;18.664;2023-04-03T03:39:59;2.00;;;0.77;;
18320;SDS011;54904;54.350;18.664;2023-04-03T03:42:26;1.07;;;0.90;;
18320;SDS011;54904;54.350;18.664;2023-04-03T03:44:53;1.83;;;0.77;;
18320;SDS011;54904;54.350;18.664;2023-04-03T03:47:20;2.63;;;0.90;;
18320;SDS011;54904;54.350;18.664;2023-04-03T03:49:48;2.00;;;0.70;;
18320;SDS011;54904;54.350;18.664;2023-04-03T03:52:16;0.90;;;0.70;;
18320;SDS011;54904;54.350;18.664;2023-04-03T03:54:43;1.90;;;0.73;;
18320;SDS011;54904;54.350;18.664;2023-04-03T03:57:11;5.00;;;0.80;;
18320;SDS011;54904;54.350;18.664;2023-04-03T03:59:38;4.53;;;0.80;;
18320;SDS011;54904;54.350;18.664;2023-04-03T04:02:07;1.17;;;0.70;;
18320;SDS011;54904;54.350;18.664;2023-04-03T04:04:34;1.40;;;0.73;;
18320;SDS011;54904;54.350;18.664;2023-04-03T04:07:03;2.00;;;0.80;;
18320;SDS011;54904;54.350;18.664;2023-04-03T04:09:32;0.90;;;0.70;;
18320;SDS011;54904;54.350;18.664;2023-04-03T04:11:59;2.43;;;0.60;;
18320;SDS011;54904;54.350;18.664;2023-04-03T04:14:28;1.67;;;0.90;;
18320;SDS011;54904;54.350;18.664;2023-04-03T04:16:55;2.27;;;0.73;;
18320;SDS011;54904;54.350;18.664;2023-04-03T04:19:25;1.53;;;0.70;;
18320;SDS011;54904;54.350;18.664;2023-04-03T04:21:53;1.47;;;0.70;;
18320;SDS011;54904;54.350;18.664;2023-04-03T04:24:22;3.00;;;0.80;;
18320;SDS011;54904;54.350;18.664;2023-04-03T04:26:52;1.53;;;0.90;;
18320;SDS011;54904;54.350;18.664;2023-04-03T04:29:20;2.83;;;0.70;;
18320;SDS011;54904;54.350;18.664;2023-04-03T04:31:50;3.53;;;0.60;;
18320;SDS011;54904;54.350;18.664;2023-04-03T04:34:17;1.10;;;0.77;;
18320;SDS011;54904;54.350;18.664;2023-04-03T04:36:45;3.17;;;0.93;;
18320;SDS011;54904;54.350;18.664;2023-04-03T04:39:13;1.43;;;0.80;;
18320;SDS011;54904;54.350;18.664;2023-04-03T04:41:42;1.30;;;0.80;;
18320;SDS011;54904;54.350;18.664;2023-04-03T04:44:09;1.93;;;0.90;;
18320;SDS011;54904;54.350;18.664;2023-04-03T04:46:37;1.87;;;0.70;;
18320;SDS011;54904;54.350;18.664;2023-04-03T04:49:06;0.77;;;0.63;;
18320;SDS011;54904;54.350;18.664;2023-04-03T04:51:33;2.33;;;0.90;;
18320;SDS011;54904;54.350;18.664;2023-04-03T04:54:00;1.93;;;0.70;;
18320;SDS011;54904;54.350;18.664;2023-04-03T04:56:28;2.77;;;1.00;;
18320;SDS011;54904;54.350;18.664;2023-04-03T04:58:57;2.73;;;0.83;;
18320;SDS011;54904;54.350;18.664;2023-04-03T05:01:25;1.57;;;0.80;;
18320;SDS011;54904;54.350;18.664;2023-04-03T05:04:03;2.17;;;0.97;;
18320;SDS011;54904;54.350;18.664;2023-04-03T05:06:30;3.87;;;1.00;;
18320;SDS011;54904;54.350;18.664;2023-04-03T05:08:59;1.10;;;1.00;;
18320;SDS011;54904;54.350;18.664;2023-04-03T05:11:28;2.73;;;0.73;;
18320;SDS011;54904;54.350;18.664;2023-04-03T05:13:55;3.70;;;1.00;;
18320;SDS011;54904;54.350;18.664;2023-04-03T05:16:25;0.70;;;0.67;;
18320;SDS011;54904;54.350;18.664;2023-04-03T05:18:53;1.43;;;0.80;;
18320;SDS011;54904;54.350;18.664;2023-04-03T05:21:21;3.73;;;0.97;;
18320;SDS011;54904;54.350;18.664;2023-04-03T05:23:51;6.57;;;1.70;;
18320;SDS011;54904;54.350;18.664;2023-04-03T05:26:19;2.40;;;1.10;;
18320;SDS011;54904;54.350;18.664;2023-04-03T05:28:48;4.70;;;1.37;;
18320;SDS011;54904;54.350;18.664;2023-04-03T05:31:15;3.50;;;0.93;;
18320;SDS011;54904;54.350;18.664;2023-04-03T05:33:44;1.60;;;0.80;;
18320;SDS011;54904;54.350;18.664;2023-04-03T05:36:15;1.93;;;0.80;;
18320;SDS011;54904;54.350;18.664;2023-04-03T05:38:47;0.67;;;0.67;;
18320;SDS011;54904;54.350;18.664;2023-04-03T05:41:15;2.27;;;1.00;;
18320;SDS011;54904;54.350;18.664;2023-04-03T05:43:44;2.63;;;0.90;;
18320;SDS011;54904;54.350;18.664;2023-04-03T05:46:13;5.57;;;1.20;;
18320;SDS011;54904;54.350;18.664;2023-04-03T05:48:45;3.20;;;0.87;;
18320;SDS011;54904;54.350;18.664;2023-04-03T05:51:16;2.10;;;0.70;;
18320;SDS011;54904;54.350;18.664;2023-04-03T05:53:46;1.37;;;0.90;;
18320;SDS011;54904;54.350;18.664;2023-04-03T05:56:16;4.20;;;0.87;;
18320;SDS011;54904;54.350;18.664;2023-04-03T05:58:43;0.80;;;0.80;;
18320;SDS011;54904;54.350;18.664;2023-04-03T06:01:10;2.80;;;0.93;;
18320;SDS011;54904;54.350;18.664;2023-04-03T06:03:38;1.57;;;0.90;;
18320;SDS011;54904;54.350;18.664;2023-04-03T06:06:10;4.87;;;1.27;;
18320;SDS011;54904;54.350;18.664;2023-04-03T06:08:39;1.33;;;0.80;;
18320;SDS011;54904;54.350;18.664;2023-04-03T06:11:06;8.00;;;1.10;;
18320;SDS011;54904;54.350;18.664;2023-04-03T06:13:34;2.10;;;0.80;;
18320;SDS011;54904;54.350;18.664;2023-04-03T06:16:01;1.73;;;0.70;;
18320;SDS011;54904;54.350;18.664;2023-04-03T06:18:29;3.70;;;0.90;;
18320;SDS011;54904;54.350;18.664;2023-04-03T06:20:57;5.40;;;1.33;;
18320;SDS011;54904;54.350;18.664;2023-04-03T06:23:27;2.87;;;1.10;;
18320;SDS011;54904;54.350;18.664;2023-04-03T06:25:54;2.43;;;1.17;;
18320;SDS011;54904;54.350;18.664;2023-04-03T06:28:21;4.73;;;0.97;;
18320;SDS011;54904;54.350;18.664;2023-04-03T06:30:48;1.93;;;0.80;;
18320;SDS011;54904;54.350;18.664;2023-04-03T06:33:15;2.97;;;0.70;;
18320;SDS011;54904;54.350;18.664;2023-04-03T06:35:43;2.60;;;0.77;;
18320;SDS011;54904;54.350;18.664;2023-04-03T06:38:10;2.00;;;1.00;;
18320;SDS011;54904;54.350;18.664;2023-04-03T06:40:38;1.50;;;0.90;;
18320;SDS011;54904;54.350;18.664;2023-04-03T06:43:05;2.27;;;0.90;;
18320;SDS011;54904;54.350;18.664;2023-04-03T06:45:33;1.87;;;1.10;;
18320;SDS011;54904;54.350;18.664;2023-04-03T06:48:01;3.33;;;0.80;;
18320;SDS011;54904;54.350;18.664;2023-04-03T06:50:28;0.80;;;0.63;;
18320;SDS011;54904;54.350;18.664;2023-04-03T06:52:55;1.10;;;0.80;;
18320;SDS011;54904;54.350;18.664;2023-04-03T06:55:22;6.83;;;1.00;;
18320;SDS011;54904;54.350;18.664;2023-04-03T06:57:51;0.70;;;0.60;;
18320;SDS011;54904;54.350;18.664;2023-04-03T07:00:18;1.40;;;0.80;;
18320;SDS011;54904;54.350;18.664;2023-04-03T07:02:46;10.97;;;1.40;;
18320;SDS011;54904;54.350;18.664;2023-04-03T07:05:13;2.00;;;1.07;;
18320;SDS011;54904;54.350;18.664;2023-04-03T07:07:40;2.03;;;1.00;;
18320;SDS011;54904;54.350;18.664;2023-04-03T07:10:08;2.97;;;0.70;;
18320;SDS011;54904;54.350;18.664;2023-04-03T07:12:36;3.27;;;0.80;;
18320;SDS011;54904;54.350;18.664;2023-04-03T07:15:06;0.67;;;0.60;;
18320;SDS011;54904;54.350;18.664;2023-04-03T07:17:33;4.60;;;0.90;;
18320;SDS011;54904;54.350;18.664;2023-04-03T07:20:01;3.10;;;0.87;;
18320;SDS011;54904;54.350;18.664;2023-04-03T07:22:30;2.23;;;0.67;;
18320;SDS011;54904;54.350;18.664;2023-04-03T07:24:57;3.70;;;0.87;;
18320;SDS011;54904;54.350;18.664;2023-04-03T07:27:25;3.90;;;0.80;;
18320;SDS011;54904;54.350;18.664;2023-04-03T07:29:52;1.03;;;0.60;;
18320;SDS011;54904;54.350;18.664;2023-04-03T07:32:22;3.83;;;0.90;;
18320;SDS011;54904;54.350;18.664;2023-04-03T07:34:50;3.73;;;0.87;;
18320;SDS011;54904;54.350;18.664;2023-04-03T07:37:17;2.20;;;0.70;;
18320;SDS011;54904;54.350;18.664;2023-04-03T07:39:44;3.67;;;1.00;;
18320;SDS011;54904;54.350;18.664;2023-04-03T07:42:11;1.90;;;0.77;;
18320;SDS011;54904;54.350;18.664;2023-04-03T07:44:38;0.67;;;0.67;;
18320;SDS011;54904;54.350;18.664;2023-04-03T07:47:06;1.57;;;0.90;;
18320;SDS011;54904;54.350;18.664;2023-04-03T07:49:35;1.53;;;0.70;;
18320;SDS011;54904;54.350;18.664;2023-04-03T07:52:05;0.70;;;0.70;;
18320;SDS011;54904;54.350;18.664;2023-04-03T07:54:32;1.83;;;1.00;;
18320;SDS011;54904;54.350;18.664;2023-04-03T07:57:00;2.10;;;1.00;;
18320;SDS011;54904;54.350;18.664;2023-04-03T07:59:27;1.33;;;0.77;;
18320;SDS011;54904;54.350;18.664;2023-04-03T08:01:54;1.60;;;0.63;;
18320;SDS011;54904;54.350;18.664;2023-04-03T08:04:22;3.33;;;0.80;;
18320;SDS011;54904;54.350;18.664;2023-04-03T08:06:50;0.60;;;0.60;;
18320;SDS011;54904;54.350;18.664;2023-04-03T08:09:17;2.23;;;0.63;;
18320;SDS011;54904;54.350;18.664;2023-04-03T08:11:45;6.43;;;0.90;;
18320;SDS011;54904;54.350;18.664;2023-04-03T08:14:12;2.43;;;1.20;;
18320;SDS011;54904;54.350;18.664;2023-04-03T08:16:44;1.07;;;0.83;;
18320;SDS011;54904;54.350;18.664;2023-04-03T08:19:12;0.53;;;0.50;;
18320;SDS011;54904;54.350;18.664;2023-04-03T08:21:40;5.23;;;0.70;;
18320;SDS011;54904;54.350;18.664;2023-04-03T08:24:09;4.87;;;0.90;;
18320;SDS011;54904;54.350;18.664;2023-04-03T08:26:36;2.90;;;0.90;;
18320;SDS011;54904;54.350;18.664;2023-04-03T08:29:04;3.43;;;1.00;;
18320;SDS011;54904;54.350;18.664;2023-04-03T08:31:31;0.90;;;0.73;;
18320;SDS011;54904;54.350;18.664;2023-04-03T08:33:58;6.03;;;1.07;;
18320;SDS011;54904;54.350;18.664;2023-04-03T08:36:26;2.57;;;0.90;;
18320;SDS011;54904;54.350;18.664;2023-04-03T08:38:55;1.83;;;0.60;;
18320;SDS011;54904;54.350;18.664;2023-04-03T08:41:27;3.30;;;0.70;;
18320;SDS011;54904;54.350;18.664;2023-04-03T08:44:02;1.37;;;0.70;;
18320;SDS011;54904;54.350;18.664;2023-04-03T08:46:45;0.67;;;0.60;;
18320;SDS011;54904;54.350;18.664;2023-04-03T08:49:22;0.97;;;0.60;;
18320;SDS011;54904;54.350;18.664;2023-04-03T08:51:53;1.37;;;0.43;;
18320;SDS011;54904;54.350;18.664;2023-04-03T08:54:26;1.67;;;0.70;;
18320;SDS011;54904;54.350;18.664;2023-04-03T08:56:57;0.40;;;0.40;;
18320;SDS011;54904;54.350;18.664;2023-04-03T08:59:29;4.90;;;0.77;;
18320;SDS011;54904;54.350;18.664;2023-04-03T09:02:00;0.77;;;0.63;;
18320;SDS011;54904;54.350;18.664;2023-04-03T09:04:32;1.53;;;0.90;;
18320;SDS011;54904;54.350;18.664;2023-04-03T09:07:02;3.83;;;0.90;;
18320;SDS011;54904;54.350;18.664;2023-04-03T09:09:35;2.37;;;0.70;;
18320;SDS011;54904;54.350;18.664;2023-04-03T09:12:10;2.20;;;0.80;;
18320;SDS011;54904;54.350;18.664;2023-04-03T09:14:46;4.70;;;0.93;;
18320;SDS011;54904;54.350;18.664;2023-04-03T09:17:24;2.77;;;0.90;;
18320;SDS011;54904;54.350;18.664;2023-04-03T09:20:05;2.43;;;1.00;;
18320;SDS011;54904;54.350;18.664;2023-04-03T09:22:41;4.13;;;0.90;;
18320;SDS011;54904;54.350;18.664;2023-04-03T09:25:11;1.00;;;0.80;;
18320;SDS011;54904;54.350;18.664;2023-04-03T09:27:43;0.80;;;0.70;;
18320;SDS011;54904;54.350;18.664;2023-04-03T09:30:13;5.40;;;1.00;;
18320;SDS011;54904;54.350;18.664;2023-04-03T09:32:41;0.93;;;0.70;;
18320;SDS011;54904;54.350;18.664;2023-04-03T09:35:15;1.00;;;0.80;;
18320;SDS011;54904;54.350;18.664;2023-04-03T09:37:47;2.57;;;1.07;;
18320;SDS011;54904;54.350;18.664;2023-04-03T09:40:27;4.97;;;0.93;;
18320;SDS011;54904;54.350;18.664;2023-04-03T09:43:02;5.90;;;1.00;;
18320;SDS011;54904;54.350;18.664;2023-04-03T09:45:48;3.73;;;1.10;;
18320;SDS011;54904;54.350;18.664;2023-04-03T09:48:17;7.70;;;1.10;;
18320;SDS011;54904;54.350;18.664;2023-04-03T09:50:53;3.30;;;1.30;;
18320;SDS011;54904;54.350;18.664;2023-04-03T09:53:28;12.60;;;1.53;;
18320;SDS011;54904;54.350;18.664;2023-04-03T09:55:58;15.30;;;2.03;;
18320;SDS011;54904;54.350;18.664;2023-04-03T09:58:27;3.83;;;1.30;;
18320;SDS011;54904;54.350;18.664;2023-04-03T10:00:58;7.87;;;1.23;;
18320;SDS011;54904;54.350;18.664;2023-04-03T10:03:30;7.97;;;1.47;;
18320;SDS011;54904;54.350;18.664;2023-04-03T10:06:00;3.23;;;0.97;;
18320;SDS011;54904;54.350;18.664;2023-04-03T10:08:28;11.23;;;1.83;;
18320;SDS011;54904;54.350;18.664;2023-04-03T10:11:07;6.13;;;1.00;;
18320;SDS011;54904;54.350;18.664;2023-04-03T10:13:54;4.57;;;1.33;;
18320;SDS011;54904;54.350;18.664;2023-04-03T10:16:26;3.70;;;0.80;;
18320;SDS011;54904;54.350;18.664;2023-04-03T10:19:09;2.67;;;1.07;;
18320;SDS011;54904;54.350;18.664;2023-04-03T10:21:57;2.70;;;0.80;;
18320;SDS011;54904;54.350;18.664;2023-04-03T10:24:28;1.80;;;0.70;;
18320;SDS011;54904;54.350;18.664;2023-04-03T10:27:02;6.13;;;1.20;;
18320;SDS011;54904;54.350;18.664;2023-04-03T10:29:40;5.40;;;0.90;;
18320;SDS011;54904;54.350;18.664;2023-04-03T10:32:24;3.63;;;0.90;;
18320;SDS011;54904;54.350;18.664;2023-04-03T10:35:02;7.30;;;1.00;;
18320;SDS011;54904;54.350;18.664;2023-04-03T10:37:42;1.87;;;0.87;;
18320;SDS011;54904;54.350;18.664;2023-04-03T10:40:20;2.20;;;0.70;;
18320;SDS011;54904;54.350;18.664;2023-04-03T10:42:58;1.63;;;0.90;;
18320;SDS011;54904;54.350;18.664;2023-04-03T10:45:32;1.87;;;1.00;;
18320;SDS011;54904;54.350;18.664;2023-04-03T10:48:29;1.03;;;0.70;;
18320;SDS011;54904;54.350;18.664;2023-04-03T10:51:10;1.80;;;0.87;;
18320;SDS011;54904;54.350;18.664;2023-04-03T10:53:53;1.90;;;0.80;;
18320;SDS011;54904;54.350;18.664;2023-04-03T10:56:27;2.40;;;0.70;;
18320;SDS011;54904;54.350;18.664;2023-04-03T10:59:02;2.03;;;0.70;;
18320;SDS011;54904;54.350;18.664;2023-04-03T11:01:46;2.10;;;0.60;;
18320;SDS011;54904;54.350;18.664;2023-04-03T11:04:17;2.07;;;0.87;;
18320;SDS011;54904;54.350;18.664;2023-04-03T11:06:47;2.00;;;0.80;;
18320;SDS011;54904;54.350;18.664;2023-04-03T11:09:19;2.57;;;0.97;;
18320;SDS011;54904;54.350;18.664;2023-04-03T11:11:51;0.97;;;0.60;;
18320;SDS011;54904;54.350;18.664;2023-04-03T11:14:24;1.97;;;0.60;;
18320;SDS011;54904;54.350;18.664;2023-04-03T11:16:59;2.17;;;0.80;;
18320;SDS011;54904;54.350;18.664;2023-04-03T11:19:38;1.30;;;0.50;;
18320;SDS011;54904;54.350;18.664;2023-04-03T11:22:10;2.90;;;1.20;;
18320;SDS011;54904;54.350;18.664;2023-04-03T11:24:46;4.10;;;0.93;;
18320;SDS011;54904;54.350;18.664;2023-04-03T11:27:23;1.53;;;0.73;;
18320;SDS011;54904;54.350;18.664;2023-04-03T11:29:51;2.80;;;0.90;;
18320;SDS011;54904;54.350;18.664;2023-04-03T11:32:36;2.60;;;0.87;;
18320;SDS011;54904;54.350;18.664;2023-04-03T11:35:28;1.87;;;1.03;;
18320;SDS011;54904;54.350;18.664;2023-04-03T11:37:56;0.63;;;0.50;;
18320;SDS011;54904;54.350;18.664;2023-04-03T11:40:26;3.20;;;0.90;;
18320;SDS011;54904;54.350;18.664;2023-04-03T11:43:03;0.70;;;0.70;;
18320;SDS011;54904;54.350;18.664;2023-04-03T11:45:36;2.77;;;0.87;;
18320;SDS011;54904;54.350;18.664;2023-04-03T12:03:16;6.17;;;1.07;;
18320;SDS011;54904;54.350;18.664;2023-04-03T12:15:21;1.50;;;0.97;;
18320;SDS011;54904;54.350;18.664;2023-04-03T12:21:18;4.57;;;1.13;;
18320;SDS011;54904;54.350;18.664;2023-04-03T12:23:57;9.40;;;3.03;;
18320;SDS011;54904;54.350;18.664;2023-04-03T12:26:27;5.50;;;2.03;;
18320;SDS011;54904;54.350;18.664;2023-04-03T12:28:58;2.03;;;1.27;;
18320;SDS011;54904;54.350;18.664;2023-04-03T12:31:39;2.10;;;0.97;;
18320;SDS011;54904;54.350;18.664;2023-04-03T12:34:15;2.80;;;1.00;;
18320;SDS011;54904;54.350;18.664;2023-04-03T12:36:55;1.67;;;0.90;;
18320;SDS011;54904;54.350;18.664;2023-04-03T12:45:30;2.40;;;1.53;;
18320;SDS011;54904;54.350;18.664;2023-04-03T12:48:12;15.90;;;3.90;;
18320;SDS011;54904;54.350;18.664;2023-04-03T12:50:42;16.57;;;3.17;;
18320;SDS011;54904;54.350;18.664;2023-04-03T12:53:12;4.33;;;2.27;;
18320;SDS011;54904;54.350;18.664;2023-04-03T12:55:43;7.93;;;3.33;;
18320;SDS011;54904;54.350;18.664;2023-04-03T12:58:13;7.10;;;2.40;;
18320;SDS011;54904;54.350;18.664;2023-04-03T13:00:44;7.47;;;3.10;;
18320;SDS011;54904;54.350;18.664;2023-04-03T13:03:22;12.90;;;4.77;;
18320;SDS011;54904;54.350;18.664;2023-04-03T13:05:53;11.37;;;2.20;;
18320;SDS011;54904;54.350;18.664;2023-04-03T13:08:23;3.90;;;1.43;;
18320;SDS011;54904;54.350;18.664;2023-04-03T13:10:53;5.97;;;2.03;;
18320;SDS011;54904;54.350;18.664;2023-04-03T13:13:24;9.17;;;1.57;;
18320;SDS011;54904;54.350;18.664;2023-04-03T13:15:52;3.97;;;0.97;;
18320;SDS011;54904;54.350;18.664;2023-04-03T13:18:24;5.07;;;1.10;;
18320;SDS011;54904;54.350;18.664;2023-04-03T13:20:57;8.43;;;1.57;;
18320;SDS011;54904;54.350;18.664;2023-04-03T13:23:27;6.83;;;1.30;;
18320;SDS011;54904;54.350;18.664;2023-04-03T13:25:56;4.87;;;1.40;;
18320;SDS011;54904;54.350;18.664;2023-04-03T13:28:29;3.77;;;1.43;;
18320;SDS011;54904;54.350;18.664;2023-04-03T13:31:00;3.20;;;1.50;;
18320;SDS011;54904;54.350;18.664;2023-04-03T13:33:32;3.83;;;1.70;;
18320;SDS011;54904;54.350;18.664;2023-04-03T13:36:04;3.50;;;1.20;;
18320;SDS011;54904;54.350;18.664;2023-04-03T13:38:32;4.63;;;1.70;;
18320;SDS011;54904;54.350;18.664;2023-04-03T13:41:03;4.27;;;1.00;;
18320;SDS011;54904;54.350;18.664;2023-04-03T13:43:47;8.57;;;1.20;;
18320;SDS011;54904;54.350;18.664;2023-04-03T13:46:25;6.60;;;1.33;;
18320;SDS011;54904;54.350;18.664;2023-04-03T13:48:55;9.33;;;1.50;;
18320;SDS011;54904;54.350;18.664;2023-04-03T13:51:23;8.03;;;1.23;;
18320;SDS011;54904;54.350;18.664;2023-04-03T13:53:53;1.80;;;1.03;;
18320;SDS011;54904;54.350;18.664;2023-04-03T13:56:24;5.77;;;1.20;;
18320;SDS011;54904;54.350;18.664;2023-04-03T13:59:00;12.43;;;1.47;;
18320;SDS011;54904;54.350;18.664;2023-04-03T14:01:41;9.83;;;1.30;;
18320;SDS011;54904;54.350;18.664;2023-04-03T14:04:12;4.57;;;1.20;;
18320;SDS011;54904;54.350;18.664;2023-04-03T14:06:43;7.03;;;0.97;;
18320;SDS011;54904;54.350;18.664;2023-04-03T14:09:10;5.53;;;0.97;;
18320;SDS011;54904;54.350;18.664;2023-04-03T14:11:39;1.63;;;0.90;;
18320;SDS011;54904;54.350;18.664;2023-04-03T14:14:09;2.00;;;0.80;;
18320;SDS011;54904;54.350;18.664;2023-04-03T14:16:42;18.43;;;1.47;;
18320;SDS011;54904;54.350;18.664;2023-04-03T14:19:16;4.87;;;1.00;;
18320;SDS011;54904;54.350;18.664;2023-04-03T14:21:46;4.30;;;1.03;;
18320;SDS011;54904;54.350;18.664;2023-04-03T14:24:14;5.83;;;1.20;;
18320;SDS011;54904;54.350;18.664;2023-04-03T14:26:41;4.47;;;1.13;;
18320;SDS011;54904;54.350;18.664;2023-04-03T14:29:10;6.43;;;0.87;;
18320;SDS011;54904;54.350;18.664;2023-04-03T14:31:38;2.53;;;1.07;;
18320;SDS011;54904;54.350;18.664;2023-04-03T14:34:07;1.53;;;1.00;;
18320;SDS011;54904;54.350;18.664;2023-04-03T14:36:34;3.23;;;1.03;;
18320;SDS011;54904;54.350;18.664;2023-04-03T14:39:01;11.30;;;2.23;;
18320;SDS011;54904;54.350;18.664;2023-04-03T14:41:29;6.67;;;1.90;;
18320;SDS011;54904;54.350;18.664;2023-04-03T14:43:56;6.33;;;1.43;;
18320;SDS011;54904;54.350;18.664;2023-04-03T14:46:25;7.33;;;1.20;;
18320;SDS011;54904;54.350;18.664;2023-04-03T14:48:55;6.07;;;1.70;;
18320;SDS011;54904;54.350;18.664;2023-04-03T14:51:24;10.53;;;1.40;;
18320;SDS011;54904;54.350;18.664;2023-04-03T14:53:52;5.50;;;1.10;;
18320;SDS011;54904;54.350;18.664;2023-04-03T14:56:21;3.30;;;1.33;;
18320;SDS011;54904;54.350;18.664;2023-04-03T14:58:52;4.20;;;0.90;;
18320;SDS011;54904;54.350;18.664;2023-04-03T15:01:22;6.73;;;1.00;;
18320;SDS011;54904;54.350;18.664;2023-04-03T15:03:49;4.73;;;1.30;;
18320;SDS011;54904;54.350;18.664;2023-04-03T15:06:16;4.00;;;0.80;;
18320;SDS011;54904;54.350;18.664;2023-04-03T15:08:45;2.13;;;0.90;;
18320;SDS011;54904;54.350;18.664;2023-04-03T15:11:14;7.90;;;1.10;;
18320;SDS011;54904;54.350;18.664;2023-04-03T15:13:41;3.23;;;1.37;;
18320;SDS011;54904;54.350;18.664;2023-04-03T15:16:11;7.00;;;1.40;;
18320;SDS011;54904;54.350;18.664;2023-04-03T15:18:42;8.50;;;1.50;;
18320;SDS011;54904;54.350;18.664;2023-04-03T15:21:10;9.93;;;1.77;;
18320;SDS011;54904;54.350;18.664;2023-04-03T15:23:37;13.47;;;1.30;;
18320;SDS011;54904;54.350;18.664;2023-04-03T15:26:05;3.60;;;1.00;;
18320;SDS011;54904;54.350;18.664;2023-04-03T15:28:33;2.80;;;1.60;;
18320;SDS011;54904;54.350;18.664;2023-04-03T15:31:02;1.33;;;1.20;;